sensor_id;sensor_type;location;lat;lon;timestamp;P1;durP1;ratioP1;P2;durP2;ratioP2
19883;SDS011;10104;50.732;10.174;2022-07-01T00:01:04;12.40;;;4.30;;
19883;SDS011;10104;50.732;10.174;2022-07-01T00:03:26;5.97;;;4.50;;
19883;SDS011;10104;50.732;10.174;2022-07-01T00:05:47;6.93;;;4.60;;
19883;SDS011;10104;50.732;10.174;2022-07-01T00:08:09;9.48;;;4.38;;
19883;SDS011;10104;50.732;10.174;2022-07-01T00:10:30;7.43;;;4.43;;
19883;SDS011;10104;50.732;10.174;2022-07-01T00:12:52;12.75;;;4.38;;
19883;SDS011;10104;50.732;10.174;2022-07-01T00:15:13;6.60;;;4.30;;
19883;SDS011;10104;50.732;10.174;2022-07-01T00:17:35;6.20;;;4.55;;
19883;SDS011;10104;50.732;10.174;2022-07-01T00:19:57;5.65;;;4.50;;
19883;SDS011;10104;50.732;10.174;2022-07-01T00:22:18;4.80;;;3.80;;
19883;SDS011;10104;50.732;10.174;2022-07-01T00:24:39;4.45;;;4.05;;
19883;SDS011;10104;50.732;10.174;2022-07-01T00:27:01;8.68;;;4.90;;
19883;SDS011;10104;50.732;10.174;2022-07-01T00:29:22;4.57;;;4.18;;
19883;SDS011;10104;50.732;10.174;2022-07-01T00:31:44;6.15;;;4.80;;
19883;SDS011;10104;50.732;10.174;2022-07-01T00:34:05;9.27;;;4.30;;
19883;SDS011;10104;50.732;10.174;2022-07-01T00:36:27;4.85;;;4.40;;
19883;SDS011;10104;50.732;10.174;2022-07-01T00:38:51;10.85;;;4.70;;
19883;SDS011;10104;50.732;10.174;2022-07-01T00:41:12;5.53;;;4.22;;
19883;SDS011;10104;50.732;10.174;2022-07-01T00:43:34;5.50;;;4.22;;
19883;SDS011;10104;50.732;10.174;2022-07-01T00:46:14;5.15;;;4.43;;
19883;SDS011;10104;50.732;10.174;2022-07-01T00:48:42;4.60;;;4.10;;
19883;SDS011;10104;50.732;10.174;2022-07-01T00:51:04;9.52;;;4.90;;
19883;SDS011;10104;50.732;10.174;2022-07-01T00:53:26;6.40;;;4.38;;
19883;SDS011;10104;50.732;10.174;2022-07-01T00:55:48;5.40;;;4.80;;
19883;SDS011;10104;50.732;10.174;2022-07-01T00:58:10;5.90;;;5.18;;
19883;SDS011;10104;50.732;10.174;2022-07-01T01:00:32;7.00;;;5.25;;
19883;SDS011;10104;50.732;10.174;2022-07-01T01:02:54;8.50;;;5.50;;
19883;SDS011;10104;50.732;10.174;2022-07-01T01:05:16;6.47;;;5.70;;
19883;SDS011;10104;50.732;10.174;2022-07-01T01:07:46;7.22;;;6.45;;
19883;SDS011;10104;50.732;10.174;2022-07-01T01:10:08;6.82;;;6.10;;
19883;SDS011;10104;50.732;10.174;2022-07-01T01:12:31;7.07;;;6.38;;
19883;SDS011;10104;50.732;10.174;2022-07-01T01:14:53;7.07;;;6.45;;
19883;SDS011;10104;50.732;10.174;2022-07-01T01:17:16;7.18;;;6.47;;
19883;SDS011;10104;50.732;10.174;2022-07-01T01:19:38;8.00;;;7.22;;
19883;SDS011;10104;50.732;10.174;2022-07-01T01:22:00;10.73;;;7.15;;
19883;SDS011;10104;50.732;10.174;2022-07-01T01:24:22;8.48;;;7.60;;
19883;SDS011;10104;50.732;10.174;2022-07-01T01:26:44;10.45;;;7.40;;
19883;SDS011;10104;50.732;10.174;2022-07-01T01:29:05;8.13;;;7.43;;
19883;SDS011;10104;50.732;10.174;2022-07-01T01:31:29;10.18;;;9.27;;
19883;SDS011;10104;50.732;10.174;2022-07-01T01:33:51;11.45;;;10.10;;
19883;SDS011;10104;50.732;10.174;2022-07-01T01:36:13;12.68;;;9.82;;
19883;SDS011;10104;50.732;10.174;2022-07-01T01:38:35;13.02;;;10.93;;
19883;SDS011;10104;50.732;10.174;2022-07-01T01:40:57;13.07;;;10.65;;
19883;SDS011;10104;50.732;10.174;2022-07-01T01:43:18;11.13;;;10.02;;
19883;SDS011;10104;50.732;10.174;2022-07-01T01:45:40;12.10;;;10.75;;
19883;SDS011;10104;50.732;10.174;2022-07-01T01:48:01;12.07;;;10.25;;
19883;SDS011;10104;50.732;10.174;2022-07-01T01:50:23;13.43;;;11.05;;
19883;SDS011;10104;50.732;10.174;2022-07-01T01:52:45;12.15;;;10.85;;
19883;SDS011;10104;50.732;10.174;2022-07-01T01:55:06;12.63;;;11.00;;
19883;SDS011;10104;50.732;10.174;2022-07-01T01:57:28;13.15;;;10.55;;
19883;SDS011;10104;50.732;10.174;2022-07-01T01:59:50;11.35;;;10.35;;
19883;SDS011;10104;50.732;10.174;2022-07-01T02:02:12;13.38;;;9.50;;
19883;SDS011;10104;50.732;10.174;2022-07-01T02:04:33;11.20;;;10.07;;
19883;SDS011;10104;50.732;10.174;2022-07-01T02:06:55;12.27;;;10.15;;
19883;SDS011;10104;50.732;10.174;2022-07-01T02:09:17;10.27;;;9.27;;
19883;SDS011;10104;50.732;10.174;2022-07-01T02:11:38;9.65;;;8.65;;
19883;SDS011;10104;50.732;10.174;2022-07-01T02:14:00;9.48;;;8.52;;
19883;SDS011;10104;50.732;10.174;2022-07-01T02:16:21;9.68;;;8.75;;
19883;SDS011;10104;50.732;10.174;2022-07-01T02:18:43;8.90;;;8.20;;
19883;SDS011;10104;50.732;10.174;2022-07-01T02:21:05;9.20;;;8.30;;
19883;SDS011;10104;50.732;10.174;2022-07-01T02:23:31;8.55;;;7.72;;
19883;SDS011;10104;50.732;10.174;2022-07-01T02:25:52;7.97;;;7.18;;
19883;SDS011;10104;50.732;10.174;2022-07-01T02:28:14;7.25;;;6.55;;
19883;SDS011;10104;50.732;10.174;2022-07-01T02:30:35;10.43;;;6.20;;
19883;SDS011;10104;50.732;10.174;2022-07-01T02:32:57;6.88;;;6.18;;
19883;SDS011;10104;50.732;10.174;2022-07-01T02:35:19;7.50;;;5.65;;
19883;SDS011;10104;50.732;10.174;2022-07-01T02:37:40;7.07;;;5.63;;
19883;SDS011;10104;50.732;10.174;2022-07-01T02:40:02;6.22;;;5.45;;
19883;SDS011;10104;50.732;10.174;2022-07-01T02:42:24;6.10;;;5.50;;
19883;SDS011;10104;50.732;10.174;2022-07-01T02:44:48;6.15;;;5.55;;
19883;SDS011;10104;50.732;10.174;2022-07-01T02:47:10;5.45;;;4.95;;
19883;SDS011;10104;50.732;10.174;2022-07-01T02:49:32;5.80;;;5.22;;
19883;SDS011;10104;50.732;10.174;2022-07-01T02:51:53;6.22;;;5.43;;
19883;SDS011;10104;50.732;10.174;2022-07-01T02:54:15;5.28;;;4.78;;
19883;SDS011;10104;50.732;10.174;2022-07-01T02:56:37;5.10;;;4.70;;
19883;SDS011;10104;50.732;10.174;2022-07-01T02:58:59;6.72;;;4.78;;
19883;SDS011;10104;50.732;10.174;2022-07-01T03:01:20;4.75;;;4.35;;
19883;SDS011;10104;50.732;10.174;2022-07-01T03:03:42;5.13;;;4.72;;
19883;SDS011;10104;50.732;10.174;2022-07-01T03:06:03;5.78;;;5.10;;
19883;SDS011;10104;50.732;10.174;2022-07-01T03:08:25;5.70;;;5.10;;
19883;SDS011;10104;50.732;10.174;2022-07-01T03:10:46;5.95;;;5.32;;
19883;SDS011;10104;50.732;10.174;2022-07-01T03:13:07;5.22;;;4.82;;
19883;SDS011;10104;50.732;10.174;2022-07-01T03:15:29;5.88;;;5.32;;
19883;SDS011;10104;50.732;10.174;2022-07-01T03:17:50;5.60;;;5.10;;
19883;SDS011;10104;50.732;10.174;2022-07-01T03:20:13;6.85;;;5.10;;
19883;SDS011;10104;50.732;10.174;2022-07-01T03:22:36;5.28;;;4.78;;
19883;SDS011;10104;50.732;10.174;2022-07-01T03:24:58;5.40;;;4.90;;
19883;SDS011;10104;50.732;10.174;2022-07-01T03:27:20;5.15;;;4.75;;
19883;SDS011;10104;50.732;10.174;2022-07-01T03:29:43;5.93;;;4.72;;
19883;SDS011;10104;50.732;10.174;2022-07-01T03:32:05;5.43;;;4.93;;
19883;SDS011;10104;50.732;10.174;2022-07-01T03:34:27;5.45;;;4.60;;
19883;SDS011;10104;50.732;10.174;2022-07-01T03:36:48;4.75;;;4.32;;
19883;SDS011;10104;50.732;10.174;2022-07-01T03:39:10;5.00;;;4.50;;
19883;SDS011;10104;50.732;10.174;2022-07-01T03:41:31;5.00;;;4.60;;
19883;SDS011;10104;50.732;10.174;2022-07-01T03:43:52;5.68;;;4.30;;
19883;SDS011;10104;50.732;10.174;2022-07-01T03:46:14;4.68;;;4.18;;
19883;SDS011;10104;50.732;10.174;2022-07-01T03:48:35;5.07;;;4.63;;
19883;SDS011;10104;50.732;10.174;2022-07-01T03:51:02;4.65;;;4.22;;
19883;SDS011;10104;50.732;10.174;2022-07-01T03:53:23;6.00;;;3.83;;
19883;SDS011;10104;50.732;10.174;2022-07-01T03:56:03;4.35;;;3.45;;
19883;SDS011;10104;50.732;10.174;2022-07-01T03:58:25;6.30;;;3.60;;
19883;SDS011;10104;50.732;10.174;2022-07-01T04:00:46;3.67;;;3.38;;
19883;SDS011;10104;50.732;10.174;2022-07-01T04:03:09;4.65;;;3.75;;
19883;SDS011;10104;50.732;10.174;2022-07-01T04:05:32;5.00;;;3.38;;
19883;SDS011;10104;50.732;10.174;2022-07-01T04:07:55;3.47;;;3.17;;
19883;SDS011;10104;50.732;10.174;2022-07-01T04:10:17;3.65;;;3.35;;
19883;SDS011;10104;50.732;10.174;2022-07-01T04:12:38;3.75;;;3.42;;
19883;SDS011;10104;50.732;10.174;2022-07-01T04:15:00;4.07;;;3.50;;
19883;SDS011;10104;50.732;10.174;2022-07-01T04:17:22;3.20;;;2.90;;
19883;SDS011;10104;50.732;10.174;2022-07-01T04:19:44;4.15;;;3.60;;
19883;SDS011;10104;50.732;10.174;2022-07-01T04:22:06;3.45;;;3.15;;
19883;SDS011;10104;50.732;10.174;2022-07-01T04:24:46;3.78;;;3.47;;
19883;SDS011;10104;50.732;10.174;2022-07-01T04:27:07;3.70;;;3.40;;
19883;SDS011;10104;50.732;10.174;2022-07-01T04:29:29;3.67;;;3.00;;
19883;SDS011;10104;50.732;10.174;2022-07-01T04:31:50;4.80;;;3.45;;
19883;SDS011;10104;50.732;10.174;2022-07-01T04:34:12;3.70;;;3.40;;
19883;SDS011;10104;50.732;10.174;2022-07-01T04:36:34;5.32;;;3.90;;
19883;SDS011;10104;50.732;10.174;2022-07-01T04:38:56;5.65;;;3.60;;
19883;SDS011;10104;50.732;10.174;2022-07-01T04:41:18;4.30;;;3.88;;
19883;SDS011;10104;50.732;10.174;2022-07-01T04:43:58;4.22;;;3.60;;
19883;SDS011;10104;50.732;10.174;2022-07-01T04:46:20;7.35;;;4.30;;
19883;SDS011;10104;50.732;10.174;2022-07-01T04:48:41;5.07;;;4.47;;
19883;SDS011;10104;50.732;10.174;2022-07-01T04:51:03;4.72;;;4.03;;
19883;SDS011;10104;50.732;10.174;2022-07-01T04:53:25;4.95;;;4.13;;
19883;SDS011;10104;50.732;10.174;2022-07-01T04:55:47;8.68;;;4.32;;
19883;SDS011;10104;50.732;10.174;2022-07-01T04:58:08;5.28;;;4.43;;
19883;SDS011;10104;50.732;10.174;2022-07-01T05:00:30;4.97;;;4.40;;
19883;SDS011;10104;50.732;10.174;2022-07-01T05:02:51;4.72;;;4.22;;
19883;SDS011;10104;50.732;10.174;2022-07-01T05:05:13;4.90;;;4.40;;
19883;SDS011;10104;50.732;10.174;2022-07-01T05:07:35;5.43;;;4.45;;
19883;SDS011;10104;50.732;10.174;2022-07-01T05:09:57;5.43;;;4.93;;
19883;SDS011;10104;50.732;10.174;2022-07-01T05:12:20;7.18;;;5.63;;
19883;SDS011;10104;50.732;10.174;2022-07-01T05:14:43;6.53;;;5.82;;
19883;SDS011;10104;50.732;10.174;2022-07-01T05:17:04;6.20;;;5.65;;
19883;SDS011;10104;50.732;10.174;2022-07-01T05:19:25;7.25;;;6.13;;
19883;SDS011;10104;50.732;10.174;2022-07-01T05:22:06;7.38;;;6.47;;
19883;SDS011;10104;50.732;10.174;2022-07-01T05:24:29;10.20;;;6.38;;
19883;SDS011;10104;50.732;10.174;2022-07-01T05:26:52;7.65;;;6.90;;
19883;SDS011;10104;50.732;10.174;2022-07-01T05:29:14;11.70;;;6.77;;
19883;SDS011;10104;50.732;10.174;2022-07-01T05:31:36;7.43;;;6.67;;
19883;SDS011;10104;50.732;10.174;2022-07-01T05:33:58;7.25;;;6.38;;
19883;SDS011;10104;50.732;10.174;2022-07-01T05:36:25;6.30;;;5.70;;
19883;SDS011;10104;50.732;10.174;2022-07-01T05:38:46;9.43;;;6.77;;
19883;SDS011;10104;50.732;10.174;2022-07-01T05:41:08;7.32;;;6.28;;
19883;SDS011;10104;50.732;10.174;2022-07-01T05:43:30;6.87;;;6.27;;
19883;SDS011;10104;50.732;10.174;2022-07-01T05:45:51;7.73;;;6.53;;
19883;SDS011;10104;50.732;10.174;2022-07-01T05:48:13;7.33;;;6.60;;
19883;SDS011;10104;50.732;10.174;2022-07-01T05:50:34;7.77;;;6.73;;
19883;SDS011;10104;50.732;10.174;2022-07-01T05:52:56;6.95;;;6.35;;
19883;SDS011;10104;50.732;10.174;2022-07-01T05:55:17;7.97;;;6.63;;
19883;SDS011;10104;50.732;10.174;2022-07-01T05:57:39;6.93;;;6.23;;
19883;SDS011;10104;50.732;10.174;2022-07-01T06:00:00;7.15;;;6.45;;
19883;SDS011;10104;50.732;10.174;2022-07-01T06:02:22;7.65;;;6.50;;
19883;SDS011;10104;50.732;10.174;2022-07-01T06:04:43;8.30;;;7.50;;
19883;SDS011;10104;50.732;10.174;2022-07-01T06:07:05;9.03;;;7.37;;
19883;SDS011;10104;50.732;10.174;2022-07-01T06:09:26;7.28;;;6.47;;
19883;SDS011;10104;50.732;10.174;2022-07-01T06:11:48;7.78;;;6.35;;
19883;SDS011;10104;50.732;10.174;2022-07-01T06:14:09;6.63;;;6.13;;
19883;SDS011;10104;50.732;10.174;2022-07-01T06:16:31;6.25;;;5.65;;
19883;SDS011;10104;50.732;10.174;2022-07-01T06:18:52;6.30;;;5.70;;
19883;SDS011;10104;50.732;10.174;2022-07-01T06:21:14;6.28;;;5.68;;
19883;SDS011;10104;50.732;10.174;2022-07-01T06:23:37;5.65;;;5.05;;
19883;SDS011;10104;50.732;10.174;2022-07-01T06:25:59;5.13;;;4.63;;
19883;SDS011;10104;50.732;10.174;2022-07-01T06:28:20;7.00;;;4.82;;
19883;SDS011;10104;50.732;10.174;2022-07-01T06:30:42;4.60;;;4.18;;
19883;SDS011;10104;50.732;10.174;2022-07-01T06:33:04;5.53;;;4.90;;
19883;SDS011;10104;50.732;10.174;2022-07-01T06:35:26;5.68;;;5.18;;
19883;SDS011;10104;50.732;10.174;2022-07-01T06:37:47;5.18;;;4.50;;
19883;SDS011;10104;50.732;10.174;2022-07-01T06:40:16;5.45;;;4.60;;
19883;SDS011;10104;50.732;10.174;2022-07-01T06:42:37;5.10;;;4.57;;
19883;SDS011;10104;50.732;10.174;2022-07-01T06:44:59;4.47;;;4.10;;
19883;SDS011;10104;50.732;10.174;2022-07-01T06:47:21;4.88;;;4.47;;
19883;SDS011;10104;50.732;10.174;2022-07-01T06:49:42;5.10;;;4.47;;
19883;SDS011;10104;50.732;10.174;2022-07-01T06:52:04;5.70;;;4.80;;
19883;SDS011;10104;50.732;10.174;2022-07-01T06:54:26;5.32;;;4.80;;
19883;SDS011;10104;50.732;10.174;2022-07-01T06:56:49;5.05;;;4.63;;
19883;SDS011;10104;50.732;10.174;2022-07-01T06:59:11;4.70;;;4.30;;
19883;SDS011;10104;50.732;10.174;2022-07-01T07:01:32;6.22;;;4.50;;
19883;SDS011;10104;50.732;10.174;2022-07-01T07:03:54;4.60;;;4.20;;
19883;SDS011;10104;50.732;10.174;2022-07-01T07:06:16;6.60;;;4.90;;
19883;SDS011;10104;50.732;10.174;2022-07-01T07:08:38;6.00;;;4.60;;
19883;SDS011;10104;50.732;10.174;2022-07-01T07:11:00;6.05;;;4.55;;
19883;SDS011;10104;50.732;10.174;2022-07-01T07:13:21;6.38;;;4.60;;
19883;SDS011;10104;50.732;10.174;2022-07-01T07:15:43;4.95;;;4.35;;
19883;SDS011;10104;50.732;10.174;2022-07-01T07:18:04;5.78;;;4.70;;
19883;SDS011;10104;50.732;10.174;2022-07-01T07:20:26;5.90;;;3.95;;
19883;SDS011;10104;50.732;10.174;2022-07-01T07:22:48;4.93;;;4.30;;
19883;SDS011;10104;50.732;10.174;2022-07-01T07:25:10;4.53;;;3.92;;
19883;SDS011;10104;50.732;10.174;2022-07-01T07:27:31;4.65;;;4.15;;
19883;SDS011;10104;50.732;10.174;2022-07-01T07:29:55;5.85;;;4.90;;
19883;SDS011;10104;50.732;10.174;2022-07-01T07:32:16;5.13;;;4.63;;
19883;SDS011;10104;50.732;10.174;2022-07-01T07:34:37;6.13;;;4.43;;
19883;SDS011;10104;50.732;10.174;2022-07-01T07:37:00;5.15;;;3.95;;
19883;SDS011;10104;50.732;10.174;2022-07-01T07:39:21;4.28;;;3.70;;
19883;SDS011;10104;50.732;10.174;2022-07-01T07:41:43;4.63;;;3.85;;
19883;SDS011;10104;50.732;10.174;2022-07-01T07:44:05;4.43;;;3.92;;
19883;SDS011;10104;50.732;10.174;2022-07-01T07:46:26;4.38;;;3.85;;
19883;SDS011;10104;50.732;10.174;2022-07-01T07:48:48;5.40;;;4.05;;
19883;SDS011;10104;50.732;10.174;2022-07-01T07:51:10;5.18;;;4.20;;
19883;SDS011;10104;50.732;10.174;2022-07-01T07:53:35;4.65;;;4.18;;
19883;SDS011;10104;50.732;10.174;2022-07-01T07:55:57;5.70;;;4.68;;
19883;SDS011;10104;50.732;10.174;2022-07-01T07:58:18;5.18;;;4.13;;
19883;SDS011;10104;50.732;10.174;2022-07-01T08:00:40;4.70;;;3.85;;
19883;SDS011;10104;50.732;10.174;2022-07-01T08:03:02;4.00;;;3.60;;
19883;SDS011;10104;50.732;10.174;2022-07-01T08:05:23;5.85;;;3.97;;
19883;SDS011;10104;50.732;10.174;2022-07-01T08:07:45;4.30;;;3.90;;
19883;SDS011;10104;50.732;10.174;2022-07-01T08:10:07;4.03;;;3.58;;
19883;SDS011;10104;50.732;10.174;2022-07-01T08:12:30;4.30;;;3.90;;
19883;SDS011;10104;50.732;10.174;2022-07-01T08:14:52;4.75;;;3.85;;
19883;SDS011;10104;50.732;10.174;2022-07-01T08:17:13;5.07;;;4.28;;
19883;SDS011;10104;50.732;10.174;2022-07-01T08:19:35;5.72;;;4.70;;
19883;SDS011;10104;50.732;10.174;2022-07-01T08:21:56;5.65;;;4.65;;
19883;SDS011;10104;50.732;10.174;2022-07-01T08:24:18;5.60;;;4.57;;
19883;SDS011;10104;50.732;10.174;2022-07-01T08:26:39;4.95;;;4.47;;
19883;SDS011;10104;50.732;10.174;2022-07-01T08:29:01;6.03;;;5.53;;
19883;SDS011;10104;50.732;10.174;2022-07-01T08:31:22;5.97;;;5.47;;
19883;SDS011;10104;50.732;10.174;2022-07-01T08:33:44;7.13;;;6.43;;
19883;SDS011;10104;50.732;10.174;2022-07-01T08:36:06;8.30;;;6.57;;
19883;SDS011;10104;50.732;10.174;2022-07-01T08:38:29;7.03;;;6.40;;
19883;SDS011;10104;50.732;10.174;2022-07-01T08:40:50;7.25;;;6.65;;
19883;SDS011;10104;50.732;10.174;2022-07-01T08:43:15;7.70;;;7.00;;
19883;SDS011;10104;50.732;10.174;2022-07-01T08:45:37;7.82;;;7.13;;
19883;SDS011;10104;50.732;10.174;2022-07-01T08:47:59;6.75;;;6.05;;
19883;SDS011;10104;50.732;10.174;2022-07-01T08:50:26;7.05;;;6.45;;
19883;SDS011;10104;50.732;10.174;2022-07-01T08:52:48;6.35;;;5.75;;
19883;SDS011;10104;50.732;10.174;2022-07-01T08:55:09;6.53;;;5.93;;
19883;SDS011;10104;50.732;10.174;2022-07-01T08:57:31;6.47;;;5.22;;
19883;SDS011;10104;50.732;10.174;2022-07-01T09:00:03;5.50;;;4.95;;
19883;SDS011;10104;50.732;10.174;2022-07-01T09:02:25;5.82;;;5.32;;
19883;SDS011;10104;50.732;10.174;2022-07-01T09:05:03;7.30;;;6.63;;
19883;SDS011;10104;50.732;10.174;2022-07-01T09:07:30;8.73;;;7.32;;
19883;SDS011;10104;50.732;10.174;2022-07-01T09:10:11;7.32;;;6.57;;
19883;SDS011;10104;50.732;10.174;2022-07-01T09:12:39;7.68;;;6.30;;
19883;SDS011;10104;50.732;10.174;2022-07-01T09:15:09;7.40;;;6.70;;
19883;SDS011;10104;50.732;10.174;2022-07-01T09:17:40;6.60;;;5.97;;
19883;SDS011;10104;50.732;10.174;2022-07-01T09:20:01;5.38;;;4.60;;
19883;SDS011;10104;50.732;10.174;2022-07-01T09:22:23;6.03;;;5.43;;
19883;SDS011;10104;50.732;10.174;2022-07-01T09:24:45;5.13;;;4.57;;
19883;SDS011;10104;50.732;10.174;2022-07-01T09:27:07;5.90;;;4.82;;
19883;SDS011;10104;50.732;10.174;2022-07-01T09:29:32;5.70;;;5.20;;
19883;SDS011;10104;50.732;10.174;2022-07-01T09:31:55;5.07;;;4.68;;
19883;SDS011;10104;50.732;10.174;2022-07-01T09:34:16;7.25;;;4.97;;
19883;SDS011;10104;50.732;10.174;2022-07-01T09:36:38;5.65;;;5.15;;
19883;SDS011;10104;50.732;10.174;2022-07-01T09:39:03;5.25;;;4.85;;
19883;SDS011;10104;50.732;10.174;2022-07-01T09:41:45;6.45;;;5.85;;
19883;SDS011;10104;50.732;10.174;2022-07-01T09:44:07;5.55;;;5.05;;
19883;SDS011;10104;50.732;10.174;2022-07-01T09:46:29;5.47;;;5.03;;
19883;SDS011;10104;50.732;10.174;2022-07-01T09:48:51;6.25;;;5.72;;
19883;SDS011;10104;50.732;10.174;2022-07-01T09:51:13;6.07;;;5.50;;
19883;SDS011;10104;50.732;10.174;2022-07-01T09:53:37;5.28;;;4.88;;
19883;SDS011;10104;50.732;10.174;2022-07-01T09:55:59;5.88;;;5.22;;
19883;SDS011;10104;50.732;10.174;2022-07-01T09:58:21;6.25;;;5.65;;
19883;SDS011;10104;50.732;10.174;2022-07-01T10:00:43;6.25;;;5.65;;
19883;SDS011;10104;50.732;10.174;2022-07-01T10:03:05;6.30;;;5.80;;
19883;SDS011;10104;50.732;10.174;2022-07-01T10:05:28;6.20;;;5.68;;
19883;SDS011;10104;50.732;10.174;2022-07-01T10:11:09;7.50;;;6.00;;
19883;SDS011;10104;50.732;10.174;2022-07-01T10:13:57;6.32;;;5.80;;
19883;SDS011;10104;50.732;10.174;2022-07-01T10:16:19;7.05;;;6.35;;
19883;SDS011;10104;50.732;10.174;2022-07-01T10:18:42;6.22;;;5.72;;
19883;SDS011;10104;50.732;10.174;2022-07-01T10:21:03;6.53;;;5.93;;
19883;SDS011;10104;50.732;10.174;2022-07-01T10:23:41;6.35;;;5.75;;
19883;SDS011;10104;50.732;10.174;2022-07-01T10:26:04;5.63;;;5.13;;
19883;SDS011;10104;50.732;10.174;2022-07-01T10:28:30;6.80;;;6.20;;
19883;SDS011;10104;50.732;10.174;2022-07-01T10:31:06;5.97;;;5.38;;
19883;SDS011;10104;50.732;10.174;2022-07-01T10:33:38;6.07;;;5.35;;
19883;SDS011;10104;50.732;10.174;2022-07-01T10:41:25;4.93;;;4.43;;
19883;SDS011;10104;50.732;10.174;2022-07-01T10:43:47;5.10;;;4.32;;
19883;SDS011;10104;50.732;10.174;2022-07-01T10:46:09;4.40;;;4.05;;
19883;SDS011;10104;50.732;10.174;2022-07-01T10:48:32;5.90;;;3.28;;
19883;SDS011;10104;50.732;10.174;2022-07-01T10:50:55;4.45;;;3.20;;
19883;SDS011;10104;50.732;10.174;2022-07-01T10:53:17;4.00;;;2.72;;
19883;SDS011;10104;50.732;10.174;2022-07-01T10:55:45;3.35;;;2.13;;
19883;SDS011;10104;50.732;10.174;2022-07-01T10:58:17;2.30;;;2.10;;
19883;SDS011;10104;50.732;10.174;2022-07-01T11:00:50;3.08;;;2.00;;
19883;SDS011;10104;50.732;10.174;2022-07-01T11:03:14;2.53;;;2.30;;
19883;SDS011;10104;50.732;10.174;2022-07-01T11:05:37;2.75;;;2.22;;
19883;SDS011;10104;50.732;10.174;2022-07-01T11:07:59;3.00;;;2.22;;
19883;SDS011;10104;50.732;10.174;2022-07-01T11:10:20;2.63;;;2.20;;
19883;SDS011;10104;50.732;10.174;2022-07-01T11:12:42;2.53;;;2.10;;
19883;SDS011;10104;50.732;10.174;2022-07-01T11:15:05;4.20;;;2.40;;
19883;SDS011;10104;50.732;10.174;2022-07-01T11:17:27;2.40;;;2.03;;
19883;SDS011;10104;50.732;10.174;2022-07-01T11:19:50;2.58;;;2.17;;
19883;SDS011;10104;50.732;10.174;2022-07-01T11:22:26;2.70;;;2.03;;
19883;SDS011;10104;50.732;10.174;2022-07-01T11:24:52;3.25;;;2.05;;
19883;SDS011;10104;50.732;10.174;2022-07-01T11:27:15;3.33;;;2.45;;
19883;SDS011;10104;50.732;10.174;2022-07-01T11:29:36;3.85;;;2.28;;
19883;SDS011;10104;50.732;10.174;2022-07-01T11:31:58;3.47;;;2.40;;
19883;SDS011;10104;50.732;10.174;2022-07-01T11:34:22;3.10;;;2.75;;
19883;SDS011;10104;50.732;10.174;2022-07-01T11:36:44;4.50;;;2.63;;
19883;SDS011;10104;50.732;10.174;2022-07-01T11:39:25;2.92;;;2.40;;
19883;SDS011;10104;50.732;10.174;2022-07-01T11:42:25;5.65;;;2.38;;
19883;SDS011;10104;50.732;10.174;2022-07-01T11:44:41;3.53;;;2.30;;
19883;SDS011;10104;50.732;10.174;2022-07-01T11:47:04;5.10;;;2.60;;
19883;SDS011;10104;50.732;10.174;2022-07-01T11:49:27;6.18;;;2.70;;
19883;SDS011;10104;50.732;10.174;2022-07-01T11:51:59;3.72;;;2.00;;
19883;SDS011;10104;50.732;10.174;2022-07-01T11:54:23;1.95;;;1.77;;
19883;SDS011;10104;50.732;10.174;2022-07-01T11:56:45;1.70;;;1.60;;
19883;SDS011;10104;50.732;10.174;2022-07-01T11:59:07;2.47;;;2.00;;
19883;SDS011;10104;50.732;10.174;2022-07-01T12:01:29;2.25;;;1.88;;
19883;SDS011;10104;50.732;10.174;2022-07-01T12:03:53;2.38;;;1.85;;
19883;SDS011;10104;50.732;10.174;2022-07-01T12:06:18;2.40;;;1.70;;
19883;SDS011;10104;50.732;10.174;2022-07-01T12:08:41;2.85;;;1.98;;
19883;SDS011;10104;50.732;10.174;2022-07-01T12:11:04;3.63;;;2.15;;
19883;SDS011;10104;50.732;10.174;2022-07-01T12:13:26;6.25;;;2.15;;
19883;SDS011;10104;50.732;10.174;2022-07-01T12:15:48;2.92;;;1.95;;
19883;SDS011;10104;50.732;10.174;2022-07-01T12:18:09;3.13;;;1.70;;
19883;SDS011;10104;50.732;10.174;2022-07-01T12:20:31;2.63;;;1.65;;
19883;SDS011;10104;50.732;10.174;2022-07-01T12:23:02;2.40;;;1.90;;
19883;SDS011;10104;50.732;10.174;2022-07-01T12:25:31;2.83;;;1.77;;
19883;SDS011;10104;50.732;10.174;2022-07-01T12:27:53;2.10;;;1.50;;
19883;SDS011;10104;50.732;10.174;2022-07-01T12:30:22;4.25;;;1.85;;
19883;SDS011;10104;50.732;10.174;2022-07-01T12:32:45;3.47;;;1.90;;
19883;SDS011;10104;50.732;10.174;2022-07-01T12:35:07;3.85;;;2.30;;
19883;SDS011;10104;50.732;10.174;2022-07-01T12:37:49;2.92;;;1.80;;
19883;SDS011;10104;50.732;10.174;2022-07-01T12:40:20;3.65;;;1.73;;
19883;SDS011;10104;50.732;10.174;2022-07-01T12:42:45;4.53;;;1.88;;
19883;SDS011;10104;50.732;10.174;2022-07-01T12:45:08;2.75;;;1.90;;
19883;SDS011;10104;50.732;10.174;2022-07-01T12:47:34;3.28;;;1.85;;
19883;SDS011;10104;50.732;10.174;2022-07-01T12:52:31;3.17;;;2.10;;
19883;SDS011;10104;50.732;10.174;2022-07-01T12:54:55;2.05;;;1.85;;
19883;SDS011;10104;50.732;10.174;2022-07-01T12:57:28;3.13;;;2.38;;
19883;SDS011;10104;50.732;10.174;2022-07-01T12:59:58;3.28;;;2.08;;
19883;SDS011;10104;50.732;10.174;2022-07-01T13:02:20;3.75;;;1.70;;
19883;SDS011;10104;50.732;10.174;2022-07-01T13:04:41;2.50;;;1.88;;
19883;SDS011;10104;50.732;10.174;2022-07-01T13:07:03;2.85;;;2.03;;
19883;SDS011;10104;50.732;10.174;2022-07-01T13:09:25;2.25;;;1.55;;
19883;SDS011;10104;50.732;10.174;2022-07-01T13:11:46;2.65;;;1.70;;
19883;SDS011;10104;50.732;10.174;2022-07-01T13:14:08;2.67;;;1.63;;
19883;SDS011;10104;50.732;10.174;2022-07-01T13:16:30;3.10;;;1.52;;
19883;SDS011;10104;50.732;10.174;2022-07-01T13:18:51;3.92;;;1.73;;
19883;SDS011;10104;50.732;10.174;2022-07-01T13:21:13;3.92;;;1.75;;
19883;SDS011;10104;50.732;10.174;2022-07-01T13:23:34;2.85;;;1.58;;
19883;SDS011;10104;50.732;10.174;2022-07-01T13:26:01;2.55;;;1.80;;
19883;SDS011;10104;50.732;10.174;2022-07-01T13:28:23;3.83;;;1.75;;
19883;SDS011;10104;50.732;10.174;2022-07-01T13:30:44;2.33;;;1.65;;
19883;SDS011;10104;50.732;10.174;2022-07-01T13:33:06;3.85;;;1.92;;
19883;SDS011;10104;50.732;10.174;2022-07-01T13:35:28;2.63;;;1.90;;
19883;SDS011;10104;50.732;10.174;2022-07-01T13:37:50;4.63;;;1.92;;
19883;SDS011;10104;50.732;10.174;2022-07-01T13:40:12;2.85;;;1.77;;
19883;SDS011;10104;50.732;10.174;2022-07-01T13:42:34;3.03;;;2.15;;
19883;SDS011;10104;50.732;10.174;2022-07-01T13:44:55;2.40;;;1.67;;
19883;SDS011;10104;50.732;10.174;2022-07-01T13:47:17;2.83;;;2.50;;
19883;SDS011;10104;50.732;10.174;2022-07-01T13:49:39;2.85;;;2.00;;
19883;SDS011;10104;50.732;10.174;2022-07-01T13:52:01;4.20;;;1.90;;
19883;SDS011;10104;50.732;10.174;2022-07-01T13:54:23;3.53;;;2.30;;
19883;SDS011;10104;50.732;10.174;2022-07-01T13:56:44;3.10;;;2.70;;
19883;SDS011;10104;50.732;10.174;2022-07-01T13:59:06;3.40;;;2.65;;
19883;SDS011;10104;50.732;10.174;2022-07-01T14:01:28;4.03;;;2.17;;
19883;SDS011;10104;50.732;10.174;2022-07-01T14:03:51;3.88;;;2.42;;
19883;SDS011;10104;50.732;10.174;2022-07-01T14:06:13;4.40;;;2.78;;
19883;SDS011;10104;50.732;10.174;2022-07-01T14:08:38;3.80;;;2.45;;
19883;SDS011;10104;50.732;10.174;2022-07-01T14:11:00;2.58;;;2.38;;
19883;SDS011;10104;50.732;10.174;2022-07-01T14:13:21;2.70;;;2.40;;
19883;SDS011;10104;50.732;10.174;2022-07-01T14:15:44;3.55;;;3.03;;
19883;SDS011;10104;50.732;10.174;2022-07-01T14:18:06;2.58;;;1.88;;
19883;SDS011;10104;50.732;10.174;2022-07-01T14:20:27;2.50;;;2.20;;